createdAt,value
2023-12-11T00:00:11.985Z,10.32
2023-12-11T00:03:15.563Z,10.38
2023-12-11T00:06:18.986Z,10.35
2023-12-11T00:09:22.456Z,10.05
2023-12-11T00:12:25.902Z,10.27
2023-12-11T00:15:29.322Z,11.13
2023-12-11T00:18:32.890Z,10.73
2023-12-11T00:21:36.513Z,10.50
2023-12-11T00:24:39.969Z,11.30
2023-12-11T00:27:43.449Z,10.80
2023-12-11T00:30:46.949Z,11.20
2023-12-11T00:33:50.547Z,11.75
2023-12-11T00:36:54.108Z,12.35
2023-12-11T00:39:57.818Z,11.03
2023-12-11T00:43:01.554Z,11.23
2023-12-11T00:46:05.244Z,11.55
2023-12-11T00:49:08.969Z,11.50
2023-12-11T00:52:12.556Z,12.03
2023-12-11T00:55:16.063Z,10.68
2023-12-11T00:58:19.505Z,12.27
2023-12-11T01:01:23.531Z,12.60
2023-12-11T01:04:27.787Z,12.18
2023-12-11T01:07:31.682Z,12.40
2023-12-11T01:10:35.475Z,11.65
2023-12-11T01:13:39.253Z,12.10
2023-12-11T01:16:42.805Z,12.35
2023-12-11T01:19:46.268Z,12.80
2023-12-11T01:22:49.744Z,13.07
2023-12-11T01:25:53.481Z,13.73
2023-12-11T01:28:56.912Z,12.93
2023-12-11T01:32:00.449Z,13.25
2023-12-11T01:35:04.347Z,12.40
2023-12-11T01:38:07.776Z,12.83
2023-12-11T01:41:11.211Z,13.90
2023-12-11T01:44:14.724Z,12.75
2023-12-11T01:47:18.312Z,12.73
2023-12-11T01:50:21.744Z,12.57
2023-12-11T01:53:26.598Z,12.80
2023-12-11T01:56:30.694Z,13.25
2023-12-11T01:59:34.513Z,13.43
2023-12-11T02:02:38.037Z,12.82
2023-12-11T02:05:46.501Z,13.43
2023-12-11T02:08:50.662Z,13.15
2023-12-11T02:11:54.260Z,13.95
2023-12-11T02:14:57.720Z,14.60
2023-12-11T02:18:01.200Z,14.35
2023-12-11T02:21:24.726Z,13.70
2023-12-11T02:24:33.813Z,12.75
2023-12-11T02:27:37.449Z,14.82
2023-12-11T02:30:52.246Z,13.00
2023-12-11T02:33:55.872Z,13.13
2023-12-11T02:36:59.398Z,13.97
2023-12-11T02:40:03.853Z,13.93
2023-12-11T02:43:07.515Z,13.75
2023-12-11T02:46:11.027Z,14.63
2023-12-11T02:49:14.620Z,21.30
2023-12-11T02:52:18.186Z,23.00
2023-12-11T02:55:21.662Z,25.20
2023-12-11T02:58:25.076Z,21.13
2023-12-11T03:01:28.629Z,18.60
2023-12-11T03:04:32.247Z,18.57
2023-12-11T03:07:35.720Z,14.38
2023-12-11T03:10:39.165Z,16.35
2023-12-11T03:13:42.715Z,13.25
2023-12-11T03:16:49.570Z,11.70
2023-12-11T03:19:54.578Z,10.98
2023-12-11T03:22:58.084Z,10.18
2023-12-11T03:26:01.466Z,10.70
2023-12-11T03:29:04.877Z,9.93
2023-12-11T03:32:08.481Z,9.75
2023-12-11T03:35:12.060Z,11.10
2023-12-11T03:38:15.550Z,11.00
2023-12-11T03:41:18.982Z,10.13
2023-12-11T03:44:22.426Z,10.13
2023-12-11T03:47:27.359Z,10.45
2023-12-11T03:50:30.871Z,9.10
2023-12-11T03:53:34.326Z,9.50
2023-12-11T03:56:37.862Z,9.50
2023-12-11T03:59:41.787Z,10.30
2023-12-11T04:02:45.249Z,11.70
2023-12-11T04:05:48.848Z,13.15
2023-12-11T04:08:52.392Z,11.23
2023-12-11T04:11:55.791Z,11.43
2023-12-11T04:14:59.259Z,10.30
2023-12-11T04:18:02.971Z,10.97
2023-12-11T04:21:07.504Z,11.38
2023-12-11T04:24:13.336Z,10.80
2023-12-11T04:27:18.315Z,9.60
2023-12-11T04:30:21.805Z,10.83
2023-12-11T04:33:25.479Z,12.07
2023-12-11T04:36:30.562Z,12.23
2023-12-11T04:39:34.030Z,12.00
2023-12-11T04:42:37.524Z,13.33
2023-12-11T04:45:41.069Z,11.98
2023-12-11T04:48:44.615Z,13.27
2023-12-11T04:51:48.168Z,12.00
2023-12-11T04:54:51.865Z,12.00
2023-12-11T04:57:55.530Z,10.98
2023-12-11T05:00:59.118Z,13.13
2023-12-11T05:04:02.664Z,12.32
2023-12-11T05:07:07.570Z,12.32
2023-12-11T05:10:31.033Z,13.07
2023-12-11T05:13:34.537Z,11.38
2023-12-11T05:16:38.431Z,12.40
2023-12-11T05:19:42.230Z,11.65
2023-12-11T05:22:45.841Z,11.23
2023-12-11T05:25:49.353Z,12.57
2023-12-11T05:28:52.877Z,13.03
2023-12-11T05:31:56.430Z,13.63
2023-12-11T05:35:00.018Z,12.35
2023-12-11T05:38:03.490Z,12.43
2023-12-11T05:41:07.248Z,12.40
2023-12-11T05:44:11.177Z,14.38
2023-12-11T05:47:14.728Z,12.60
2023-12-11T05:50:18.188Z,15.32
2023-12-11T05:53:21.676Z,15.33
2023-12-11T05:56:25.300Z,13.80
2023-12-11T05:59:28.978Z,14.32
2023-12-11T06:02:32.807Z,13.38
2023-12-11T06:05:36.383Z,14.47
2023-12-11T06:08:39.840Z,13.20
2023-12-11T06:11:43.288Z,14.55
2023-12-11T06:14:49.320Z,15.13
2023-12-11T06:17:53.349Z,13.97
2023-12-11T06:21:02.810Z,14.02
2023-12-11T06:24:07.579Z,13.85
2023-12-11T06:27:11.516Z,12.80
2023-12-11T06:30:15.661Z,11.97
2023-12-11T06:33:19.176Z,13.52
2023-12-11T06:36:23.344Z,13.32
2023-12-11T06:39:28.367Z,14.45
2023-12-11T06:42:38.981Z,12.57
2023-12-11T06:45:42.572Z,13.25
2023-12-11T06:48:46.314Z,11.48
2023-12-11T06:51:51.101Z,11.73
2023-12-11T06:54:55.667Z,12.07
2023-12-11T06:57:59.320Z,13.63
2023-12-11T07:01:03.006Z,11.07
2023-12-11T07:04:07.234Z,12.27
2023-12-11T07:07:10.961Z,12.68
2023-12-11T07:10:14.428Z,10.93
2023-12-11T07:13:18.081Z,15.18
2023-12-11T07:16:21.954Z,10.77
2023-12-11T07:19:25.641Z,11.63
2023-12-11T07:22:29.239Z,12.10
2023-12-11T07:25:33.995Z,10.55
2023-12-11T07:28:38.166Z,13.20
2023-12-11T07:31:42.939Z,11.65
2023-12-11T07:34:46.429Z,11.32
2023-12-11T07:37:49.869Z,9.10
2023-12-11T07:40:57.995Z,11.45
2023-12-11T07:44:01.438Z,11.77
2023-12-11T07:47:05.043Z,9.32
2023-12-11T07:50:08.843Z,9.65
2023-12-11T07:53:13.673Z,9.18
2023-12-11T07:56:21.747Z,10.82
2023-12-11T07:59:25.297Z,11.38
2023-12-11T08:02:28.751Z,10.33
2023-12-11T08:05:32.831Z,11.65
2023-12-11T08:08:41.590Z,8.75
2023-12-11T08:11:45.094Z,8.60
2023-12-11T08:14:48.597Z,10.27
2023-12-11T08:17:52.238Z,9.07
2023-12-11T08:20:55.951Z,8.63
2023-12-11T08:23:59.384Z,9.68
2023-12-11T08:27:08.677Z,10.07
2023-12-11T08:30:12.997Z,9.68
2023-12-11T08:33:16.516Z,9.43
2023-12-11T08:36:20.028Z,11.98
2023-12-11T08:39:23.588Z,11.48
2023-12-11T08:42:27.054Z,10.87
2023-12-11T08:45:30.527Z,11.30
2023-12-11T08:48:34.397Z,12.48
2023-12-11T08:51:38.169Z,12.52
2023-12-11T08:54:41.760Z,12.32
2023-12-11T08:57:46.122Z,12.10
2023-12-11T09:00:49.856Z,12.20
2023-12-11T09:03:53.589Z,13.15
2023-12-11T09:06:58.446Z,11.95
2023-12-11T09:10:02.693Z,10.73
2023-12-11T09:13:06.408Z,10.25
2023-12-11T09:16:10.494Z,13.25
2023-12-11T09:19:44.186Z,12.77
2023-12-11T09:22:52.614Z,10.63
2023-12-11T09:25:56.440Z,11.03
2023-12-11T09:29:00.295Z,11.98
2023-12-11T09:32:04.144Z,12.68
2023-12-11T09:35:08.924Z,14.52
2023-12-11T09:38:13.276Z,12.63
2023-12-11T09:41:16.841Z,14.17
2023-12-11T09:44:22.414Z,11.90
2023-12-11T09:47:30.541Z,15.00
2023-12-11T09:50:37.745Z,13.70
2023-12-11T09:53:43.540Z,13.70
2023-12-11T09:56:48.306Z,14.17
2023-12-11T09:59:53.450Z,14.25
2023-12-11T10:02:58.224Z,14.63
2023-12-11T10:06:04.322Z,15.57
2023-12-11T10:09:07.809Z,14.93
2023-12-11T10:12:11.363Z,15.30
2023-12-11T10:15:24.007Z,15.05
2023-12-11T10:18:27.673Z,14.73
2023-12-11T10:21:42.743Z,13.55
2023-12-11T10:24:46.279Z,14.68
2023-12-11T10:27:49.816Z,15.00
2023-12-11T10:30:57.343Z,13.95
2023-12-11T10:34:07.135Z,14.73
2023-12-11T10:37:15.279Z,13.10
2023-12-11T10:40:19.392Z,14.90
2023-12-11T10:43:23.017Z,13.77
2023-12-11T10:46:26.848Z,13.75
2023-12-11T12:45:37.082Z,12.63
2023-12-11T12:48:41.111Z,13.68
2023-12-11T12:51:55.602Z,13.03
2023-12-11T12:54:59.129Z,12.93
2023-12-11T12:58:02.821Z,13.82
2023-12-11T13:01:06.820Z,14.20
2023-12-11T13:04:11.993Z,15.07
2023-12-11T13:07:15.889Z,12.17
2023-12-11T13:10:19.398Z,13.50
2023-12-11T13:13:27.689Z,14.63
2023-12-11T13:16:32.122Z,14.10
2023-12-11T13:19:36.259Z,13.60
2023-12-11T13:22:41.045Z,13.37
2023-12-11T13:25:44.486Z,13.00
2023-12-11T13:28:48.019Z,14.15
2023-12-11T13:31:53.687Z,14.45
2023-12-11T13:34:57.666Z,14.02
2023-12-11T13:38:01.259Z,13.93
2023-12-11T13:41:04.898Z,15.63
2023-12-11T13:44:08.400Z,15.43
2023-12-11T13:47:11.934Z,15.23
2023-12-11T13:50:15.468Z,14.27
2023-12-11T13:53:19.898Z,14.43
2023-12-11T13:56:23.294Z,14.43
2023-12-11T13:59:26.721Z,15.60
2023-12-11T14:02:58.942Z,14.95
2023-12-11T14:05:54.053Z,14.23
2023-12-11T14:08:57.520Z,14.20
2023-12-11T14:12:01.782Z,14.10
2023-12-11T14:15:09.177Z,14.43
2023-12-11T14:18:12.921Z,14.35
2023-12-11T14:21:17.839Z,14.20
2023-12-11T14:24:21.266Z,14.03
2023-12-11T14:27:24.894Z,14.75
2023-12-11T14:30:28.668Z,15.07
2023-12-11T14:33:32.421Z,14.70
2023-12-11T14:36:36.349Z,14.93
2023-12-11T14:39:41.612Z,13.83
2023-12-11T14:42:45.099Z,14.53
2023-12-11T14:45:48.712Z,14.20
2023-12-11T14:48:54.232Z,14.50
2023-12-11T14:51:58.325Z,14.00
2023-12-11T14:55:01.962Z,14.70
2023-12-11T14:58:06.046Z,13.53
2023-12-11T15:01:09.854Z,14.88
2023-12-11T15:04:13.393Z,13.63
2023-12-11T15:07:16.913Z,13.35
2023-12-11T15:10:20.519Z,12.03
2023-12-11T15:13:24.001Z,13.63
2023-12-11T15:16:27.963Z,13.88
2023-12-11T15:19:31.446Z,15.68
2023-12-11T15:22:34.924Z,16.38
2023-12-11T15:25:38.738Z,16.47
2023-12-11T15:28:42.225Z,16.83
2023-12-11T15:31:45.681Z,23.13
2023-12-11T15:34:49.255Z,32.08
2023-12-11T15:37:52.729Z,21.45
2023-12-11T15:40:56.094Z,20.90
2023-12-11T15:43:59.580Z,16.77
2023-12-11T15:47:03.183Z,16.15
2023-12-11T15:50:09.571Z,12.98
2023-12-11T15:53:13.139Z,14.30
2023-12-11T15:56:20.002Z,13.63
2023-12-11T15:59:23.464Z,12.88
2023-12-11T16:02:28.517Z,12.50
2023-12-11T16:05:32.119Z,12.63
2023-12-11T16:08:35.609Z,13.80
2023-12-11T16:11:39.775Z,13.20
2023-12-11T16:14:43.911Z,13.93
2023-12-11T16:17:47.350Z,12.27
2023-12-11T16:20:50.750Z,12.68
2023-12-11T16:23:55.118Z,10.52
2023-12-11T16:26:58.514Z,12.37
2023-12-11T16:30:02.278Z,11.13
2023-12-11T16:33:07.161Z,12.40
2023-12-11T16:36:13.855Z,13.55
2023-12-11T16:39:17.906Z,12.38
2023-12-11T16:42:21.304Z,14.43
2023-12-11T16:45:24.752Z,12.50
2023-12-11T16:48:28.257Z,13.95
2023-12-11T16:51:31.727Z,14.32
2023-12-11T16:54:35.115Z,12.93
2023-12-11T16:57:38.494Z,12.20
2023-12-11T17:00:42.104Z,12.63
2023-12-11T17:03:45.788Z,13.25
2023-12-11T17:06:49.436Z,10.98
2023-12-11T17:09:54.970Z,13.32
2023-12-11T17:12:59.686Z,11.37
2023-12-11T17:16:04.188Z,11.50
2023-12-11T17:19:08.261Z,11.98
2023-12-11T17:22:11.864Z,12.50
2023-12-11T17:25:15.438Z,12.93
2023-12-11T17:28:18.939Z,13.80
2023-12-11T17:31:22.441Z,14.38
2023-12-11T17:34:25.936Z,15.40
2023-12-11T17:37:29.449Z,12.55
2023-12-11T17:40:32.993Z,12.88
2023-12-11T17:43:36.398Z,10.63
2023-12-11T17:46:39.763Z,12.40
2023-12-11T17:49:43.409Z,12.88
2023-12-11T17:52:47.100Z,12.07
2023-12-11T17:55:50.526Z,13.40
2023-12-11T17:58:53.950Z,11.67
2023-12-11T18:01:57.503Z,12.80
2023-12-11T18:05:01.380Z,9.93
2023-12-11T18:08:05.200Z,9.93
2023-12-11T18:11:08.669Z,11.82
2023-12-11T18:14:12.153Z,11.23
2023-12-11T18:17:15.872Z,12.75
2023-12-11T18:20:19.745Z,11.65
2023-12-11T18:23:23.504Z,11.15
2023-12-11T18:26:27.245Z,13.27
2023-12-11T18:29:30.679Z,12.30
2023-12-11T18:32:34.223Z,11.70
2023-12-11T18:35:37.632Z,11.02
2023-12-11T18:38:41.038Z,12.70
2023-12-11T18:41:44.868Z,13.25
2023-12-11T18:44:48.402Z,13.50
2023-12-11T18:47:52.595Z,14.18
2023-12-11T18:50:56.333Z,12.32
2023-12-11T18:53:59.844Z,11.65
2023-12-11T18:57:04.639Z,11.55
2023-12-11T19:00:11.481Z,11.70
2023-12-11T19:03:15.172Z,10.80
2023-12-11T19:06:19.204Z,13.23
2023-12-11T19:09:22.626Z,13.63
2023-12-11T19:12:26.166Z,11.15
2023-12-11T19:15:29.878Z,12.00
2023-12-11T19:18:33.462Z,12.80
2023-12-11T19:21:37.590Z,12.73
2023-12-11T19:24:41.963Z,13.10
2023-12-11T19:27:45.892Z,10.75
2023-12-11T19:30:49.388Z,13.13
2023-12-11T19:33:52.886Z,12.10
2023-12-11T19:36:58.053Z,12.90
2023-12-11T19:40:01.708Z,11.25
2023-12-11T19:43:05.694Z,13.10
2023-12-11T19:46:09.588Z,13.47
2023-12-11T19:49:13.366Z,11.82
2023-12-11T19:52:17.182Z,13.50
2023-12-11T19:55:20.787Z,12.43
2023-12-11T19:58:24.319Z,11.88
2023-12-11T20:01:32.153Z,12.90
2023-12-11T20:04:37.501Z,13.32
2023-12-11T20:07:41.269Z,14.13
2023-12-11T20:10:44.908Z,12.50
2023-12-11T20:13:49.022Z,10.50
2023-12-11T20:16:53.170Z,12.27
2023-12-11T20:20:00.962Z,14.98
2023-12-11T20:23:04.685Z,13.63
2023-12-11T20:26:12.908Z,12.93
2023-12-11T20:29:16.398Z,12.32
2023-12-11T20:32:19.757Z,13.60
2023-12-11T20:35:23.213Z,13.52
2023-12-11T20:38:26.658Z,12.52
2023-12-11T20:41:31.133Z,13.40
2023-12-11T20:44:34.497Z,13.65
2023-12-11T20:47:37.964Z,12.83
2023-12-11T20:50:41.417Z,14.50
2023-12-11T20:53:45.582Z,12.75
2023-12-11T20:56:49.115Z,13.07
2023-12-11T20:59:52.507Z,12.55
2023-12-11T21:02:55.914Z,14.37
2023-12-11T21:05:59.319Z,13.45
2023-12-11T21:09:08.827Z,13.73
2023-12-11T21:12:12.518Z,11.90
2023-12-11T21:15:16.004Z,13.32
2023-12-11T21:18:20.074Z,11.73
2023-12-11T21:21:25.141Z,13.93
2023-12-11T21:24:28.606Z,12.48
2023-12-11T21:27:32.346Z,12.75
2023-12-11T21:30:35.946Z,11.85
2023-12-11T21:33:39.368Z,12.53
2023-12-11T21:36:42.771Z,12.57
2023-12-11T21:39:46.243Z,13.10
2023-12-11T21:42:49.738Z,13.07
2023-12-11T21:45:54.589Z,13.80
2023-12-11T21:49:02.235Z,12.53
2023-12-11T21:52:06.789Z,15.07
2023-12-11T21:55:12.970Z,14.35
2023-12-11T21:58:16.574Z,13.48
2023-12-11T22:01:20.118Z,12.15
2023-12-11T22:04:23.864Z,12.10
2023-12-11T22:07:27.290Z,12.60
2023-12-11T22:10:30.707Z,14.10
2023-12-11T22:13:34.124Z,14.55
2023-12-11T22:16:39.821Z,15.38
2023-12-11T22:19:44.982Z,13.67
2023-12-11T22:22:54.722Z,13.77
2023-12-11T22:25:58.864Z,12.93
2023-12-11T22:29:02.193Z,12.88
2023-12-11T22:32:06.684Z,12.90
2023-12-11T22:35:10.517Z,13.00
2023-12-11T22:38:13.834Z,11.75
2023-12-11T22:41:36.545Z,11.77
2023-12-11T22:44:39.948Z,12.55
2023-12-11T22:47:43.298Z,12.65
2023-12-11T22:50:46.634Z,11.07
2023-12-11T22:53:50.087Z,11.75
2023-12-11T22:56:53.601Z,12.40
2023-12-11T22:59:56.986Z,12.05
2023-12-11T23:03:00.298Z,13.10
2023-12-11T23:06:03.772Z,11.70
2023-12-11T23:09:07.185Z,11.38
2023-12-11T23:12:10.550Z,10.85
2023-12-11T23:15:13.996Z,11.20
2023-12-11T23:18:17.690Z,11.10
2023-12-11T23:21:21.121Z,10.40
2023-12-11T23:24:24.423Z,10.73
2023-12-11T23:27:27.864Z,10.10
2023-12-11T23:30:31.606Z,11.05
2023-12-11T23:33:35.272Z,11.30
2023-12-11T23:36:38.639Z,9.53
2023-12-11T23:39:41.980Z,10.07
2023-12-11T23:42:45.284Z,10.35
2023-12-11T23:45:48.920Z,10.15
2023-12-11T23:48:52.618Z,10.27
2023-12-11T23:51:56.091Z,9.63
2023-12-11T23:54:59.494Z,10.77
2023-12-11T23:58:02.960Z,10.25
